sensor_id;sensor_type;location;lat;lon;timestamp;P1;durP1;ratioP1;P2;durP2;ratioP2
58208;SDS011;44006;52.028;4.696;2023-02-04T00:02:21;25.97;;;4.47;;
58208;SDS011;44006;52.028;4.696;2023-02-04T00:04:47;32.45;;;5.50;;
58208;SDS011;44006;52.028;4.696;2023-02-04T00:07:12;29.47;;;5.20;;
58208;SDS011;44006;52.028;4.696;2023-02-04T00:09:37;27.42;;;4.38;;
58208;SDS011;44006;52.028;4.696;2023-02-04T00:12:02;33.05;;;4.75;;
58208;SDS011;44006;52.028;4.696;2023-02-04T00:14:27;30.58;;;4.80;;
58208;SDS011;44006;52.028;4.696;2023-02-04T00:16:53;32.00;;;4.60;;
58208;SDS011;44006;52.028;4.696;2023-02-04T00:19:18;30.50;;;5.28;;
58208;SDS011;44006;52.028;4.696;2023-02-04T00:21:44;32.88;;;5.53;;
58208;SDS011;44006;52.028;4.696;2023-02-04T00:24:09;38.47;;;5.07;;
58208;SDS011;44006;52.028;4.696;2023-02-04T00:26:35;22.55;;;4.65;;
58208;SDS011;44006;52.028;4.696;2023-02-04T00:29:00;30.33;;;5.30;;
58208;SDS011;44006;52.028;4.696;2023-02-04T00:31:25;31.03;;;4.97;;
58208;SDS011;44006;52.028;4.696;2023-02-04T00:33:50;28.02;;;4.72;;
58208;SDS011;44006;52.028;4.696;2023-02-04T00:36:16;41.30;;;5.57;;
58208;SDS011;44006;52.028;4.696;2023-02-04T00:38:41;33.03;;;5.25;;
58208;SDS011;44006;52.028;4.696;2023-02-04T00:41:07;24.10;;;4.70;;
58208;SDS011;44006;52.028;4.696;2023-02-04T00:43:32;22.27;;;4.80;;
58208;SDS011;44006;52.028;4.696;2023-02-04T00:45:58;30.50;;;4.85;;
58208;SDS011;44006;52.028;4.696;2023-02-04T00:48:24;27.55;;;5.38;;
58208;SDS011;44006;52.028;4.696;2023-02-04T00:50:49;29.20;;;4.60;;
58208;SDS011;44006;52.028;4.696;2023-02-04T00:53:15;33.50;;;5.57;;
58208;SDS011;44006;52.028;4.696;2023-02-04T00:55:40;33.83;;;5.13;;
58208;SDS011;44006;52.028;4.696;2023-02-04T00:58:06;26.48;;;4.47;;
58208;SDS011;44006;52.028;4.696;2023-02-04T01:00:32;37.35;;;5.68;;
58208;SDS011;44006;52.028;4.696;2023-02-04T01:02:58;21.73;;;4.82;;
58208;SDS011;44006;52.028;4.696;2023-02-04T01:05:23;34.13;;;4.70;;
58208;SDS011;44006;52.028;4.696;2023-02-04T01:07:48;28.40;;;4.38;;
58208;SDS011;44006;52.028;4.696;2023-02-04T01:10:14;37.10;;;5.40;;
58208;SDS011;44006;52.028;4.696;2023-02-04T01:12:40;32.42;;;5.10;;
58208;SDS011;44006;52.028;4.696;2023-02-04T01:15:05;30.42;;;5.60;;
58208;SDS011;44006;52.028;4.696;2023-02-04T01:17:30;25.23;;;4.32;;
58208;SDS011;44006;52.028;4.696;2023-02-04T01:19:55;28.38;;;4.55;;
58208;SDS011;44006;52.028;4.696;2023-02-04T01:22:21;24.27;;;4.45;;
58208;SDS011;44006;52.028;4.696;2023-02-04T01:24:46;23.42;;;4.32;;
58208;SDS011;44006;52.028;4.696;2023-02-04T01:27:12;25.95;;;4.65;;
58208;SDS011;44006;52.028;4.696;2023-02-04T01:29:38;20.08;;;3.70;;
58208;SDS011;44006;52.028;4.696;2023-02-04T01:32:03;29.27;;;5.63;;
58208;SDS011;44006;52.028;4.696;2023-02-04T01:34:28;25.42;;;4.30;;
58208;SDS011;44006;52.028;4.696;2023-02-04T01:36:55;24.45;;;4.05;;
58208;SDS011;44006;52.028;4.696;2023-02-04T01:39:20;21.67;;;4.50;;
58208;SDS011;44006;52.028;4.696;2023-02-04T01:41:46;21.58;;;4.80;;
58208;SDS011;44006;52.028;4.696;2023-02-04T01:44:11;26.77;;;4.68;;
58208;SDS011;44006;52.028;4.696;2023-02-04T01:46:36;32.38;;;4.68;;
58208;SDS011;44006;52.028;4.696;2023-02-04T01:49:02;20.58;;;4.45;;
58208;SDS011;44006;52.028;4.696;2023-02-04T01:51:28;27.38;;;5.05;;
58208;SDS011;44006;52.028;4.696;2023-02-04T01:53:56;24.52;;;5.25;;
58208;SDS011;44006;52.028;4.696;2023-02-04T01:56:23;25.05;;;4.90;;
58208;SDS011;44006;52.028;4.696;2023-02-04T01:58:50;29.42;;;4.85;;
58208;SDS011;44006;52.028;4.696;2023-02-04T02:01:32;29.90;;;5.53;;
58208;SDS011;44006;52.028;4.696;2023-02-04T02:06:23;24.90;;;4.65;;
58208;SDS011;44006;52.028;4.696;2023-02-04T02:08:48;31.52;;;5.45;;
58208;SDS011;44006;52.028;4.696;2023-02-04T02:11:15;37.73;;;6.17;;
58208;SDS011;44006;52.028;4.696;2023-02-04T02:13:40;25.67;;;4.88;;
58208;SDS011;44006;52.028;4.696;2023-02-04T02:16:05;24.08;;;4.68;;
58208;SDS011;44006;52.028;4.696;2023-02-04T02:18:30;27.42;;;5.03;;
58208;SDS011;44006;52.028;4.696;2023-02-04T02:20:56;21.85;;;4.05;;
58208;SDS011;44006;52.028;4.696;2023-02-04T02:26:05;30.83;;;5.32;;
58208;SDS011;44006;52.028;4.696;2023-02-04T02:28:30;32.75;;;5.50;;
58208;SDS011;44006;52.028;4.696;2023-02-04T02:30:55;24.23;;;4.40;;
58208;SDS011;44006;52.028;4.696;2023-02-04T02:33:20;32.67;;;5.53;;
58208;SDS011;44006;52.028;4.696;2023-02-04T02:35:47;32.30;;;5.45;;
58208;SDS011;44006;52.028;4.696;2023-02-04T02:38:13;22.77;;;4.30;;
58208;SDS011;44006;52.028;4.696;2023-02-04T02:40:38;25.10;;;4.72;;
58208;SDS011;44006;52.028;4.696;2023-02-04T02:43:03;25.40;;;5.03;;
58208;SDS011;44006;52.028;4.696;2023-02-04T02:45:30;31.13;;;5.85;;
58208;SDS011;44006;52.028;4.696;2023-02-04T02:47:57;29.45;;;5.15;;
58208;SDS011;44006;52.028;4.696;2023-02-04T02:50:24;37.53;;;5.75;;
58208;SDS011;44006;52.028;4.696;2023-02-04T02:52:50;29.10;;;5.40;;
58208;SDS011;44006;52.028;4.696;2023-02-04T02:55:16;31.15;;;5.43;;
58208;SDS011;44006;52.028;4.696;2023-02-04T02:57:45;27.40;;;5.22;;
58208;SDS011;44006;52.028;4.696;2023-02-04T03:00:12;27.35;;;4.68;;
58208;SDS011;44006;52.028;4.696;2023-02-04T03:02:38;33.78;;;5.30;;
58208;SDS011;44006;52.028;4.696;2023-02-04T03:05:03;21.05;;;5.30;;
58208;SDS011;44006;52.028;4.696;2023-02-04T03:07:34;24.25;;;4.93;;
58208;SDS011;44006;52.028;4.696;2023-02-04T03:10:00;21.25;;;4.55;;
58208;SDS011;44006;52.028;4.696;2023-02-04T03:12:25;25.10;;;5.00;;
58208;SDS011;44006;52.028;4.696;2023-02-04T03:14:51;25.48;;;5.38;;
58208;SDS011;44006;52.028;4.696;2023-02-04T03:17:17;26.05;;;5.00;;
58208;SDS011;44006;52.028;4.696;2023-02-04T03:19:43;25.45;;;4.63;;
58208;SDS011;44006;52.028;4.696;2023-02-04T03:22:09;23.38;;;4.32;;
58208;SDS011;44006;52.028;4.696;2023-02-04T03:24:35;23.98;;;4.95;;
58208;SDS011;44006;52.028;4.696;2023-02-04T03:27:00;29.10;;;4.82;;
58208;SDS011;44006;52.028;4.696;2023-02-04T03:29:26;24.48;;;4.57;;
58208;SDS011;44006;52.028;4.696;2023-02-04T03:31:52;23.42;;;4.47;;
58208;SDS011;44006;52.028;4.696;2023-02-04T03:34:19;21.13;;;4.40;;
58208;SDS011;44006;52.028;4.696;2023-02-04T03:36:44;24.13;;;4.60;;
58208;SDS011;44006;52.028;4.696;2023-02-04T03:39:09;22.95;;;4.70;;
58208;SDS011;44006;52.028;4.696;2023-02-04T03:41:35;24.97;;;5.00;;
58208;SDS011;44006;52.028;4.696;2023-02-04T03:44:00;25.52;;;5.20;;
58208;SDS011;44006;52.028;4.696;2023-02-04T03:46:25;24.90;;;4.78;;
58208;SDS011;44006;52.028;4.696;2023-02-04T03:48:51;23.85;;;5.13;;
58208;SDS011;44006;52.028;4.696;2023-02-04T03:51:16;33.80;;;5.95;;
58208;SDS011;44006;52.028;4.696;2023-02-04T03:53:41;26.10;;;5.60;;
58208;SDS011;44006;52.028;4.696;2023-02-04T03:56:06;26.67;;;5.10;;
58208;SDS011;44006;52.028;4.696;2023-02-04T03:58:34;32.45;;;5.82;;
58208;SDS011;44006;52.028;4.696;2023-02-04T04:00:59;26.45;;;5.10;;
58208;SDS011;44006;52.028;4.696;2023-02-04T04:03:24;26.25;;;5.03;;
58208;SDS011;44006;52.028;4.696;2023-02-04T04:05:49;27.80;;;5.17;;
58208;SDS011;44006;52.028;4.696;2023-02-04T04:08:15;27.37;;;5.03;;
58208;SDS011;44006;52.028;4.696;2023-02-04T04:10:41;32.55;;;5.57;;
58208;SDS011;44006;52.028;4.696;2023-02-04T04:13:06;30.67;;;5.57;;
58208;SDS011;44006;52.028;4.696;2023-02-04T04:15:32;27.27;;;5.75;;
58208;SDS011;44006;52.028;4.696;2023-02-04T04:17:57;27.33;;;4.88;;
58208;SDS011;44006;52.028;4.696;2023-02-04T04:20:23;33.10;;;6.80;;
58208;SDS011;44006;52.028;4.696;2023-02-04T04:22:51;30.70;;;5.30;;
58208;SDS011;44006;52.028;4.696;2023-02-04T04:25:17;26.55;;;5.15;;
58208;SDS011;44006;52.028;4.696;2023-02-04T04:27:42;27.73;;;5.10;;
58208;SDS011;44006;52.028;4.696;2023-02-04T04:30:08;27.58;;;4.90;;
58208;SDS011;44006;52.028;4.696;2023-02-04T04:32:33;34.75;;;5.53;;
58208;SDS011;44006;52.028;4.696;2023-02-04T04:34:58;25.73;;;4.75;;
58208;SDS011;44006;52.028;4.696;2023-02-04T04:37:24;33.95;;;5.30;;
58208;SDS011;44006;52.028;4.696;2023-02-04T04:39:49;29.17;;;5.43;;
58208;SDS011;44006;52.028;4.696;2023-02-04T04:42:14;36.67;;;5.37;;
58208;SDS011;44006;52.028;4.696;2023-02-04T04:44:39;28.45;;;4.57;;
58208;SDS011;44006;52.028;4.696;2023-02-04T04:47:05;30.73;;;5.07;;
58208;SDS011;44006;52.028;4.696;2023-02-04T04:49:30;27.48;;;5.15;;
58208;SDS011;44006;52.028;4.696;2023-02-04T04:51:55;29.30;;;4.82;;
58208;SDS011;44006;52.028;4.696;2023-02-04T04:54:20;24.50;;;4.68;;
58208;SDS011;44006;52.028;4.696;2023-02-04T04:56:45;30.55;;;4.80;;
58208;SDS011;44006;52.028;4.696;2023-02-04T04:59:11;30.55;;;4.72;;
58208;SDS011;44006;52.028;4.696;2023-02-04T05:01:36;27.73;;;4.72;;
58208;SDS011;44006;52.028;4.696;2023-02-04T05:04:01;26.98;;;4.47;;
58208;SDS011;44006;52.028;4.696;2023-02-04T05:06:28;23.48;;;4.72;;
58208;SDS011;44006;52.028;4.696;2023-02-04T05:08:54;27.05;;;5.00;;
58208;SDS011;44006;52.028;4.696;2023-02-04T05:11:19;27.23;;;5.18;;
58208;SDS011;44006;52.028;4.696;2023-02-04T05:13:45;30.23;;;4.93;;
58208;SDS011;44006;52.028;4.696;2023-02-04T05:16:10;28.52;;;5.45;;
58208;SDS011;44006;52.028;4.696;2023-02-04T05:18:39;33.30;;;5.25;;
58208;SDS011;44006;52.028;4.696;2023-02-04T05:21:05;34.28;;;5.95;;
58208;SDS011;44006;52.028;4.696;2023-02-04T05:23:32;25.73;;;4.88;;
58208;SDS011;44006;52.028;4.696;2023-02-04T05:25:57;26.50;;;4.60;;
58208;SDS011;44006;52.028;4.696;2023-02-04T05:28:23;28.63;;;5.13;;
58208;SDS011;44006;52.028;4.696;2023-02-04T05:30:49;29.90;;;5.43;;
58208;SDS011;44006;52.028;4.696;2023-02-04T05:33:14;27.83;;;5.15;;
58208;SDS011;44006;52.028;4.696;2023-02-04T05:35:39;29.13;;;5.07;;
58208;SDS011;44006;52.028;4.696;2023-02-04T05:38:05;28.40;;;5.38;;
58208;SDS011;44006;52.028;4.696;2023-02-04T05:40:30;27.63;;;4.93;;
58208;SDS011;44006;52.028;4.696;2023-02-04T05:42:55;27.20;;;5.55;;
58208;SDS011;44006;52.028;4.696;2023-02-04T05:45:20;37.20;;;5.37;;
58208;SDS011;44006;52.028;4.696;2023-02-04T05:47:46;28.60;;;4.85;;
58208;SDS011;44006;52.028;4.696;2023-02-04T05:50:11;27.73;;;4.65;;
58208;SDS011;44006;52.028;4.696;2023-02-04T05:52:36;24.02;;;4.47;;
58208;SDS011;44006;52.028;4.696;2023-02-04T05:55:02;34.43;;;5.57;;
58208;SDS011;44006;52.028;4.696;2023-02-04T05:57:29;26.10;;;4.57;;
58208;SDS011;44006;52.028;4.696;2023-02-04T05:59:55;24.23;;;5.00;;
58208;SDS011;44006;52.028;4.696;2023-02-04T06:02:20;27.80;;;4.93;;
58208;SDS011;44006;52.028;4.696;2023-02-04T06:04:45;23.05;;;4.75;;
58208;SDS011;44006;52.028;4.696;2023-02-04T06:07:10;26.88;;;5.07;;
58208;SDS011;44006;52.028;4.696;2023-02-04T06:09:40;27.98;;;6.03;;
58208;SDS011;44006;52.028;4.696;2023-02-04T06:12:05;25.83;;;5.10;;
58208;SDS011;44006;52.028;4.696;2023-02-04T06:14:30;22.85;;;4.78;;
58208;SDS011;44006;52.028;4.696;2023-02-04T06:16:56;24.95;;;4.80;;
58208;SDS011;44006;52.028;4.696;2023-02-04T06:19:22;22.55;;;5.00;;
58208;SDS011;44006;52.028;4.696;2023-02-04T06:21:47;24.13;;;4.82;;
58208;SDS011;44006;52.028;4.696;2023-02-04T06:24:12;36.17;;;5.95;;
58208;SDS011;44006;52.028;4.696;2023-02-04T06:26:38;27.60;;;5.20;;
58208;SDS011;44006;52.028;4.696;2023-02-04T06:29:03;25.58;;;4.70;;
58208;SDS011;44006;52.028;4.696;2023-02-04T06:31:28;28.05;;;5.53;;
58208;SDS011;44006;52.028;4.696;2023-02-04T06:33:53;22.90;;;4.90;;
58208;SDS011;44006;52.028;4.696;2023-02-04T06:36:19;31.17;;;5.88;;
58208;SDS011;44006;52.028;4.696;2023-02-04T06:38:44;29.95;;;5.25;;
58208;SDS011;44006;52.028;4.696;2023-02-04T06:41:10;28.65;;;5.72;;
58208;SDS011;44006;52.028;4.696;2023-02-04T06:43:36;25.73;;;5.03;;
58208;SDS011;44006;52.028;4.696;2023-02-04T06:46:02;26.23;;;5.22;;
58208;SDS011;44006;52.028;4.696;2023-02-04T06:48:27;28.33;;;5.28;;
58208;SDS011;44006;52.028;4.696;2023-02-04T06:50:52;28.60;;;5.32;;
58208;SDS011;44006;52.028;4.696;2023-02-04T06:53:17;25.27;;;5.30;;
58208;SDS011;44006;52.028;4.696;2023-02-04T06:55:43;29.48;;;6.47;;
58208;SDS011;44006;52.028;4.696;2023-02-04T06:58:09;26.55;;;5.72;;
58208;SDS011;44006;52.028;4.696;2023-02-04T07:00:34;26.48;;;6.30;;
58208;SDS011;44006;52.028;4.696;2023-02-04T07:03:00;30.85;;;5.85;;
58208;SDS011;44006;52.028;4.696;2023-02-04T07:05:25;30.00;;;5.82;;
58208;SDS011;44006;52.028;4.696;2023-02-04T07:07:50;31.95;;;6.03;;
58208;SDS011;44006;52.028;4.696;2023-02-04T07:10:16;36.05;;;6.57;;
58208;SDS011;44006;52.028;4.696;2023-02-04T07:12:42;33.78;;;6.97;;
58208;SDS011;44006;52.028;4.696;2023-02-04T07:15:08;27.88;;;6.05;;
58208;SDS011;44006;52.028;4.696;2023-02-04T07:17:34;25.98;;;5.50;;
58208;SDS011;44006;52.028;4.696;2023-02-04T07:19:59;30.73;;;6.10;;
58208;SDS011;44006;52.028;4.696;2023-02-04T07:22:24;27.02;;;5.57;;
58208;SDS011;44006;52.028;4.696;2023-02-04T07:24:50;29.35;;;5.68;;
58208;SDS011;44006;52.028;4.696;2023-02-04T07:27:16;30.63;;;5.43;;
58208;SDS011;44006;52.028;4.696;2023-02-04T07:29:41;23.15;;;5.72;;
58208;SDS011;44006;52.028;4.696;2023-02-04T07:32:06;31.73;;;6.18;;
58208;SDS011;44006;52.028;4.696;2023-02-04T07:34:33;32.72;;;6.32;;
58208;SDS011;44006;52.028;4.696;2023-02-04T07:36:58;31.05;;;5.95;;
58208;SDS011;44006;52.028;4.696;2023-02-04T07:39:23;28.92;;;5.55;;
58208;SDS011;44006;52.028;4.696;2023-02-04T07:41:48;20.45;;;5.03;;
58208;SDS011;44006;52.028;4.696;2023-02-04T07:44:14;28.42;;;6.00;;
58208;SDS011;44006;52.028;4.696;2023-02-04T07:46:39;26.80;;;5.32;;
58208;SDS011;44006;52.028;4.696;2023-02-04T07:49:04;25.77;;;5.22;;
58208;SDS011;44006;52.028;4.696;2023-02-04T07:51:29;22.23;;;5.30;;
58208;SDS011;44006;52.028;4.696;2023-02-04T07:53:55;25.58;;;5.13;;
58208;SDS011;44006;52.028;4.696;2023-02-04T07:56:20;27.90;;;6.38;;
58208;SDS011;44006;52.028;4.696;2023-02-04T07:58:45;24.95;;;4.72;;
58208;SDS011;44006;52.028;4.696;2023-02-04T08:01:11;23.65;;;5.25;;
58208;SDS011;44006;52.028;4.696;2023-02-04T08:03:36;27.73;;;5.13;;
58208;SDS011;44006;52.028;4.696;2023-02-04T08:06:01;28.25;;;6.05;;
58208;SDS011;44006;52.028;4.696;2023-02-04T08:08:27;24.98;;;4.88;;
58208;SDS011;44006;52.028;4.696;2023-02-04T08:10:52;20.08;;;5.18;;
58208;SDS011;44006;52.028;4.696;2023-02-04T08:13:17;26.30;;;5.10;;
58208;SDS011;44006;52.028;4.696;2023-02-04T08:15:42;25.88;;;5.18;;
58208;SDS011;44006;52.028;4.696;2023-02-04T08:18:08;25.17;;;5.63;;
58208;SDS011;44006;52.028;4.696;2023-02-04T08:20:33;17.90;;;4.60;;
58208;SDS011;44006;52.028;4.696;2023-02-04T08:22:58;28.17;;;5.40;;
58208;SDS011;44006;52.028;4.696;2023-02-04T08:25:23;25.98;;;5.57;;
58208;SDS011;44006;52.028;4.696;2023-02-04T08:27:49;24.08;;;5.63;;
58208;SDS011;44006;52.028;4.696;2023-02-04T08:30:14;21.73;;;5.03;;
58208;SDS011;44006;52.028;4.696;2023-02-04T08:32:39;31.55;;;6.88;;
58208;SDS011;44006;52.028;4.696;2023-02-04T08:35:05;18.73;;;6.25;;
58208;SDS011;44006;52.028;4.696;2023-02-04T08:37:30;31.83;;;7.30;;
58208;SDS011;44006;52.028;4.696;2023-02-04T08:39:55;39.28;;;6.55;;
58208;SDS011;44006;52.028;4.696;2023-02-04T08:42:21;30.30;;;6.40;;
58208;SDS011;44006;52.028;4.696;2023-02-04T08:44:46;37.78;;;6.90;;
58208;SDS011;44006;52.028;4.696;2023-02-04T08:47:11;32.83;;;6.15;;
58208;SDS011;44006;52.028;4.696;2023-02-04T08:49:36;32.80;;;6.50;;
58208;SDS011;44006;52.028;4.696;2023-02-04T08:52:02;32.15;;;6.10;;
58208;SDS011;44006;52.028;4.696;2023-02-04T08:54:28;40.05;;;7.03;;
58208;SDS011;44006;52.028;4.696;2023-02-04T08:56:53;39.70;;;7.40;;
58208;SDS011;44006;52.028;4.696;2023-02-04T08:59:19;38.15;;;6.18;;
58208;SDS011;44006;52.028;4.696;2023-02-04T09:01:46;32.17;;;6.88;;
58208;SDS011;44006;52.028;4.696;2023-02-04T09:04:14;32.63;;;6.78;;
58208;SDS011;44006;52.028;4.696;2023-02-04T09:06:39;38.00;;;6.68;;
58208;SDS011;44006;52.028;4.696;2023-02-04T09:09:04;30.33;;;6.90;;
58208;SDS011;44006;52.028;4.696;2023-02-04T09:11:30;33.10;;;7.20;;
58208;SDS011;44006;52.028;4.696;2023-02-04T09:13:56;45.75;;;7.53;;
58208;SDS011;44006;52.028;4.696;2023-02-04T09:16:21;33.15;;;7.25;;
58208;SDS011;44006;52.028;4.696;2023-02-04T09:18:47;34.13;;;6.97;;
58208;SDS011;44006;52.028;4.696;2023-02-04T09:21:12;37.67;;;7.33;;
58208;SDS011;44006;52.028;4.696;2023-02-04T09:23:37;37.45;;;8.07;;
58208;SDS011;44006;52.028;4.696;2023-02-04T09:26:02;35.83;;;7.77;;
58208;SDS011;44006;52.028;4.696;2023-02-04T09:28:28;34.45;;;8.50;;
58208;SDS011;44006;52.028;4.696;2023-02-04T09:30:53;43.58;;;8.82;;
58208;SDS011;44006;52.028;4.696;2023-02-04T09:33:19;38.78;;;8.13;;
58208;SDS011;44006;52.028;4.696;2023-02-04T09:35:45;37.28;;;8.60;;
58208;SDS011;44006;52.028;4.696;2023-02-04T09:38:10;43.83;;;8.63;;
58208;SDS011;44006;52.028;4.696;2023-02-04T09:40:36;40.08;;;9.18;;
58208;SDS011;44006;52.028;4.696;2023-02-04T09:43:04;30.02;;;7.75;;
58208;SDS011;44006;52.028;4.696;2023-02-04T09:45:32;32.75;;;8.82;;
58208;SDS011;44006;52.028;4.696;2023-02-04T09:47:57;35.33;;;8.82;;
58208;SDS011;44006;52.028;4.696;2023-02-04T09:50:24;44.65;;;8.50;;
58208;SDS011;44006;52.028;4.696;2023-02-04T09:52:50;36.50;;;8.52;;
58208;SDS011;44006;52.028;4.696;2023-02-04T09:55:18;34.92;;;7.93;;
58208;SDS011;44006;52.028;4.696;2023-02-04T09:57:43;35.63;;;8.60;;
58208;SDS011;44006;52.028;4.696;2023-02-04T10:00:16;34.95;;;9.18;;
58208;SDS011;44006;52.028;4.696;2023-02-04T10:02:42;42.60;;;9.55;;
58208;SDS011;44006;52.028;4.696;2023-02-04T10:05:13;40.00;;;8.90;;
58208;SDS011;44006;52.028;4.696;2023-02-04T10:07:39;39.10;;;8.80;;
58208;SDS011;44006;52.028;4.696;2023-02-04T10:10:04;36.35;;;8.02;;
58208;SDS011;44006;52.028;4.696;2023-02-04T10:12:30;36.10;;;7.38;;
58208;SDS011;44006;52.028;4.696;2023-02-04T10:14:56;41.55;;;6.38;;
58208;SDS011;44006;52.028;4.696;2023-02-04T10:17:21;33.60;;;7.38;;
58208;SDS011;44006;52.028;4.696;2023-02-04T10:19:46;34.75;;;7.82;;
58208;SDS011;44006;52.028;4.696;2023-02-04T10:22:15;37.45;;;7.65;;
58208;SDS011;44006;52.028;4.696;2023-02-04T10:24:41;34.47;;;9.10;;
58208;SDS011;44006;52.028;4.696;2023-02-04T10:27:07;41.70;;;9.05;;
58208;SDS011;44006;52.028;4.696;2023-02-04T10:29:32;32.55;;;8.65;;
58208;SDS011;44006;52.028;4.696;2023-02-04T10:31:58;32.65;;;8.77;;
58208;SDS011;44006;52.028;4.696;2023-02-04T10:34:31;35.60;;;9.37;;
58208;SDS011;44006;52.028;4.696;2023-02-04T10:36:57;39.55;;;8.70;;
58208;SDS011;44006;52.028;4.696;2023-02-04T10:39:26;34.60;;;8.07;;
58208;SDS011;44006;52.028;4.696;2023-02-04T10:41:52;35.22;;;8.55;;
58208;SDS011;44006;52.028;4.696;2023-02-04T10:44:44;36.25;;;7.07;;
58208;SDS011;44006;52.028;4.696;2023-02-04T10:47:12;37.03;;;6.70;;
58208;SDS011;44006;52.028;4.696;2023-02-04T10:49:39;37.03;;;7.47;;
58208;SDS011;44006;52.028;4.696;2023-02-04T10:52:12;39.92;;;8.40;;
58208;SDS011;44006;52.028;4.696;2023-02-04T10:54:39;38.50;;;7.90;;
58208;SDS011;44006;52.028;4.696;2023-02-04T10:59:33;37.80;;;8.70;;
58208;SDS011;44006;52.028;4.696;2023-02-04T11:02:00;34.45;;;9.07;;
58208;SDS011;44006;52.028;4.696;2023-02-04T11:04:25;32.53;;;8.57;;
58208;SDS011;44006;52.028;4.696;2023-02-04T11:06:52;35.38;;;8.15;;
58208;SDS011;44006;52.028;4.696;2023-02-04T11:09:19;32.42;;;8.25;;
58208;SDS011;44006;52.028;4.696;2023-02-04T11:11:46;35.85;;;7.93;;
58208;SDS011;44006;52.028;4.696;2023-02-04T11:14:27;37.72;;;7.72;;
58208;SDS011;44006;52.028;4.696;2023-02-04T11:16:53;31.83;;;8.43;;
58208;SDS011;44006;52.028;4.696;2023-02-04T11:19:33;31.90;;;7.90;;
58208;SDS011;44006;52.028;4.696;2023-02-04T11:24:50;33.47;;;7.63;;
58208;SDS011;44006;52.028;4.696;2023-02-04T11:27:20;26.20;;;7.32;;
58208;SDS011;44006;52.028;4.696;2023-02-04T11:29:46;40.88;;;8.07;;
58208;SDS011;44006;52.028;4.696;2023-02-04T11:35:05;34.35;;;8.95;;
58208;SDS011;44006;52.028;4.696;2023-02-04T11:39:57;38.63;;;8.47;;
58208;SDS011;44006;52.028;4.696;2023-02-04T11:42:44;28.20;;;6.97;;
58208;SDS011;44006;52.028;4.696;2023-02-04T11:45:13;25.83;;;7.28;;
58208;SDS011;44006;52.028;4.696;2023-02-04T11:47:38;30.58;;;6.93;;
58208;SDS011;44006;52.028;4.696;2023-02-04T11:50:20;25.33;;;6.60;;
58208;SDS011;44006;52.028;4.696;2023-02-04T11:52:46;25.02;;;6.88;;
58208;SDS011;44006;52.028;4.696;2023-02-04T11:55:12;27.40;;;6.55;;
58208;SDS011;44006;52.028;4.696;2023-02-04T11:57:41;28.77;;;7.05;;
58208;SDS011;44006;52.028;4.696;2023-02-04T12:02:40;27.27;;;6.50;;
58208;SDS011;44006;52.028;4.696;2023-02-04T12:05:10;26.25;;;6.97;;
58208;SDS011;44006;52.028;4.696;2023-02-04T12:07:35;19.55;;;6.43;;
58208;SDS011;44006;52.028;4.696;2023-02-04T12:12:59;29.30;;;6.85;;
58208;SDS011;44006;52.028;4.696;2023-02-04T12:15:30;24.80;;;6.45;;
58208;SDS011;44006;52.028;4.696;2023-02-04T12:20:25;17.20;;;5.80;;
58208;SDS011;44006;52.028;4.696;2023-02-04T12:22:51;21.30;;;5.70;;
58208;SDS011;44006;52.028;4.696;2023-02-04T12:25:16;27.13;;;6.20;;
58208;SDS011;44006;52.028;4.696;2023-02-04T12:27:43;24.83;;;7.13;;
58208;SDS011;44006;52.028;4.696;2023-02-04T12:30:09;21.25;;;6.63;;
58208;SDS011;44006;52.028;4.696;2023-02-04T12:32:35;21.80;;;5.70;;
58208;SDS011;44006;52.028;4.696;2023-02-04T12:35:00;26.63;;;6.55;;
58208;SDS011;44006;52.028;4.696;2023-02-04T12:37:25;26.63;;;7.25;;
58208;SDS011;44006;52.028;4.696;2023-02-04T12:39:50;24.77;;;6.00;;
58208;SDS011;44006;52.028;4.696;2023-02-04T12:42:17;27.73;;;5.97;;
58208;SDS011;44006;52.028;4.696;2023-02-04T12:44:42;22.08;;;6.65;;
58208;SDS011;44006;52.028;4.696;2023-02-04T12:47:07;21.88;;;6.55;;
58208;SDS011;44006;52.028;4.696;2023-02-04T12:49:32;30.80;;;6.90;;
58208;SDS011;44006;52.028;4.696;2023-02-04T12:51:57;24.25;;;6.78;;
58208;SDS011;44006;52.028;4.696;2023-02-04T12:54:26;26.73;;;6.63;;
58208;SDS011;44006;52.028;4.696;2023-02-04T12:56:51;25.13;;;6.90;;
58208;SDS011;44006;52.028;4.696;2023-02-04T12:59:17;25.25;;;6.97;;
58208;SDS011;44006;52.028;4.696;2023-02-04T13:01:42;29.73;;;6.97;;
58208;SDS011;44006;52.028;4.696;2023-02-04T13:04:07;27.97;;;6.80;;
58208;SDS011;44006;52.028;4.696;2023-02-04T13:06:33;25.85;;;7.20;;
58208;SDS011;44006;52.028;4.696;2023-02-04T13:08:58;26.00;;;7.38;;
58208;SDS011;44006;52.028;4.696;2023-02-04T13:11:23;21.93;;;6.43;;
58208;SDS011;44006;52.028;4.696;2023-02-04T13:13:49;29.88;;;8.00;;
58208;SDS011;44006;52.028;4.696;2023-02-04T13:16:14;25.93;;;8.23;;
58208;SDS011;44006;52.028;4.696;2023-02-04T13:18:40;28.52;;;7.60;;
58208;SDS011;44006;52.028;4.696;2023-02-04T13:21:05;28.17;;;7.97;;
58208;SDS011;44006;52.028;4.696;2023-02-04T13:23:30;29.83;;;7.43;;
58208;SDS011;44006;52.028;4.696;2023-02-04T13:25:55;23.42;;;7.40;;
58208;SDS011;44006;52.028;4.696;2023-02-04T13:28:21;26.37;;;7.10;;
58208;SDS011;44006;52.028;4.696;2023-02-04T13:30:46;36.27;;;7.87;;
58208;SDS011;44006;52.028;4.696;2023-02-04T13:33:11;25.10;;;6.95;;
58208;SDS011;44006;52.028;4.696;2023-02-04T13:35:37;25.17;;;7.22;;
58208;SDS011;44006;52.028;4.696;2023-02-04T13:38:02;26.45;;;7.68;;
58208;SDS011;44006;52.028;4.696;2023-02-04T13:40:27;24.23;;;7.25;;
58208;SDS011;44006;52.028;4.696;2023-02-04T13:42:53;33.67;;;7.57;;
58208;SDS011;44006;52.028;4.696;2023-02-04T13:45:18;33.03;;;8.87;;
58208;SDS011;44006;52.028;4.696;2023-02-04T13:47:43;29.23;;;7.82;;
58208;SDS011;44006;52.028;4.696;2023-02-04T13:50:08;30.57;;;8.40;;
58208;SDS011;44006;52.028;4.696;2023-02-04T13:52:33;36.88;;;8.88;;
58208;SDS011;44006;52.028;4.696;2023-02-04T13:54:59;32.25;;;8.35;;
58208;SDS011;44006;52.028;4.696;2023-02-04T13:57:24;32.40;;;9.20;;
58208;SDS011;44006;52.028;4.696;2023-02-04T13:59:50;30.48;;;9.27;;
58208;SDS011;44006;52.028;4.696;2023-02-04T14:02:15;30.23;;;8.85;;
58208;SDS011;44006;52.028;4.696;2023-02-04T14:04:40;36.05;;;10.43;;
58208;SDS011;44006;52.028;4.696;2023-02-04T14:07:07;38.08;;;9.85;;
58208;SDS011;44006;52.028;4.696;2023-02-04T14:09:33;41.05;;;12.18;;
58208;SDS011;44006;52.028;4.696;2023-02-04T14:11:58;32.15;;;10.82;;
58208;SDS011;44006;52.028;4.696;2023-02-04T14:14:23;38.50;;;10.30;;
58208;SDS011;44006;52.028;4.696;2023-02-04T14:16:48;28.27;;;9.93;;
58208;SDS011;44006;52.028;4.696;2023-02-04T14:19:14;35.58;;;10.20;;
58208;SDS011;44006;52.028;4.696;2023-02-04T14:21:39;33.30;;;10.43;;
58208;SDS011;44006;52.028;4.696;2023-02-04T14:24:04;31.10;;;9.15;;
58208;SDS011;44006;52.028;4.696;2023-02-04T14:26:30;27.05;;;8.27;;
58208;SDS011;44006;52.028;4.696;2023-02-04T14:28:55;23.02;;;8.10;;
58208;SDS011;44006;52.028;4.696;2023-02-04T14:31:20;27.08;;;8.07;;
58208;SDS011;44006;52.028;4.696;2023-02-04T14:33:45;30.40;;;10.37;;
58208;SDS011;44006;52.028;4.696;2023-02-04T14:36:10;32.00;;;9.77;;
58208;SDS011;44006;52.028;4.696;2023-02-04T14:38:36;35.22;;;11.05;;
58208;SDS011;44006;52.028;4.696;2023-02-04T14:41:03;30.52;;;10.93;;
58208;SDS011;44006;52.028;4.696;2023-02-04T14:43:28;39.80;;;11.52;;
58208;SDS011;44006;52.028;4.696;2023-02-04T14:45:53;42.13;;;11.52;;
58208;SDS011;44006;52.028;4.696;2023-02-04T14:48:19;36.92;;;10.68;;
58208;SDS011;44006;52.028;4.696;2023-02-04T14:50:45;35.53;;;10.90;;